createdAt,value
2018-10-21T00:02:29.903Z,95207.00
2018-10-21T00:05:00.860Z,95203.00
2018-10-21T00:07:31.832Z,95204.00
2018-10-21T00:10:03.100Z,95199.00
2018-10-21T00:12:33.812Z,95195.00
2018-10-21T00:15:05.142Z,95194.00
2018-10-21T00:17:36.291Z,95190.00
2018-10-21T00:20:08.330Z,95195.00
2018-10-21T00:22:39.555Z,95193.00
2018-10-21T00:25:10.767Z,95190.00
2018-10-21T00:27:41.670Z,95190.00
2018-10-21T00:30:12.463Z,95188.00
2018-10-21T00:32:49.820Z,95183.00
2018-10-21T00:35:20.831Z,95182.00
2018-10-21T00:37:51.734Z,95185.00
2018-10-21T00:40:22.612Z,95185.00
2018-10-21T00:42:53.476Z,95180.00
2018-10-21T00:45:24.448Z,95173.00
2018-10-21T00:47:55.590Z,95172.00
2018-10-21T00:50:26.693Z,95168.00
2018-10-21T00:52:57.538Z,95165.00
2018-10-21T00:55:28.874Z,95167.00
2018-10-21T00:57:59.684Z,95165.00
2018-10-21T01:00:30.484Z,95162.00
2018-10-21T01:03:01.390Z,95163.00
2018-10-21T01:05:32.126Z,95169.00
2018-10-21T01:08:02.944Z,95162.00
2018-10-21T01:10:33.645Z,95166.00
2018-10-21T01:13:04.354Z,95159.00
2018-10-21T01:15:35.147Z,95155.00
2018-10-21T01:18:06.149Z,95149.00
2018-10-21T01:20:36.960Z,95150.00
2018-10-21T01:23:07.935Z,95149.00
2018-10-21T01:25:38.713Z,95147.00
2018-10-21T01:28:09.656Z,95145.00
2018-10-21T01:30:40.577Z,95144.00
2018-10-21T01:33:11.449Z,95148.00
2018-10-21T01:35:42.248Z,95147.00
2018-10-21T01:38:13.196Z,95143.00
2018-10-21T01:40:45.035Z,95145.00
2018-10-21T01:43:34.123Z,95148.00
2018-10-21T01:46:04.972Z,95142.00
2018-10-21T01:48:35.797Z,95138.00
2018-10-21T01:51:06.806Z,95136.00
2018-10-21T01:53:37.697Z,95137.00
2018-10-21T01:56:08.692Z,95135.00
2018-10-21T01:58:39.705Z,95137.00
2018-10-21T02:01:10.584Z,95137.00
2018-10-21T02:03:41.865Z,95133.00
2018-10-21T02:06:12.785Z,95130.00
2018-10-21T02:08:43.795Z,95130.00
2018-10-21T02:11:14.791Z,95128.00
2018-10-21T02:13:45.736Z,95127.00
2018-10-21T02:16:16.620Z,95128.00
2018-10-21T02:18:47.549Z,95125.00
2018-10-21T02:21:18.633Z,95121.00
2018-10-21T02:23:49.562Z,95123.00
2018-10-21T02:26:20.593Z,95120.00
2018-10-21T02:28:51.526Z,95117.00
2018-10-21T02:31:22.238Z,95118.00
2018-10-21T02:33:53.125Z,95122.00
2018-10-21T02:36:23.922Z,95123.00
2018-10-21T02:38:54.693Z,95118.00
2018-10-21T02:41:43.818Z,95120.00
2018-10-21T02:44:16.307Z,95122.00
2018-10-21T02:46:47.748Z,95125.00
2018-10-21T02:49:19.076Z,95123.00
2018-10-21T02:51:55.157Z,95119.00
2018-10-21T02:54:29.291Z,95117.00
2018-10-21T02:57:00.639Z,95116.00
2018-10-21T02:59:31.586Z,95119.00
2018-10-21T03:02:02.395Z,95117.00
2018-10-21T03:04:33.614Z,95117.00
2018-10-21T03:07:04.596Z,95118.00
2018-10-21T03:09:35.531Z,95120.00
2018-10-21T03:12:06.596Z,95116.00
2018-10-21T03:14:37.548Z,95117.00
2018-10-21T03:17:08.534Z,95114.00
2018-10-21T03:19:39.407Z,95117.00
2018-10-21T03:22:10.440Z,95119.00
2018-10-21T03:24:41.458Z,95118.00
2018-10-21T03:27:12.172Z,95112.00
2018-10-21T03:29:43.221Z,95113.00
2018-10-21T03:32:13.983Z,95113.00
2018-10-21T03:34:44.960Z,95116.00
2018-10-21T03:37:15.702Z,95119.00
2018-10-21T03:39:46.864Z,95117.00
2018-10-21T03:42:17.726Z,95111.00
2018-10-21T03:44:48.759Z,95112.00
2018-10-21T03:47:19.729Z,95114.00
2018-10-21T03:49:50.778Z,95111.00
2018-10-21T03:52:21.749Z,95107.00
2018-10-21T03:54:52.822Z,95105.00
2018-10-21T03:57:23.763Z,95102.00
2018-10-21T03:59:54.912Z,95105.00
2018-10-21T04:02:25.986Z,95107.00
2018-10-21T04:04:56.938Z,95111.00
2018-10-21T04:07:27.995Z,95102.00
2018-10-21T04:09:59.095Z,95102.00
2018-10-21T04:12:30.151Z,95096.00
2018-10-21T04:15:01.279Z,95094.00
2018-10-21T04:17:32.251Z,95095.00
2018-10-21T04:20:03.206Z,95093.00
2018-10-21T04:22:38.253Z,95097.00
2018-10-21T04:25:08.836Z,95094.00
2018-10-21T04:27:40.025Z,95089.00
2018-10-21T04:30:11.394Z,95094.00
2018-10-21T04:32:44.489Z,95097.00
2018-10-21T04:35:15.297Z,95084.00
2018-10-21T04:38:40.706Z,95087.00
2018-10-21T04:41:11.592Z,95087.00
2018-10-21T04:43:42.749Z,95091.00
2018-10-21T04:46:13.774Z,95089.00
2018-10-21T04:48:44.800Z,95085.00
2018-10-21T04:51:16.007Z,95090.00
2018-10-21T04:53:46.931Z,95087.00
2018-10-21T04:56:18.105Z,95087.00
2018-10-21T04:58:49.038Z,95091.00
2018-10-21T05:01:19.830Z,95088.00
2018-10-21T05:03:50.972Z,95086.00
2018-10-21T05:06:22.010Z,95088.00
2018-10-21T05:08:52.906Z,95084.00
2018-10-21T05:11:23.813Z,95084.00
2018-10-21T05:13:54.814Z,95086.00
2018-10-21T05:16:25.661Z,95093.00
2018-10-21T05:18:56.872Z,95093.00
2018-10-21T05:21:27.706Z,95099.00
2018-10-21T05:23:58.652Z,95110.00
2018-10-21T05:26:29.444Z,95113.00
2018-10-21T05:29:00.273Z,95117.00
2018-10-21T05:31:31.139Z,95114.00
2018-10-21T05:34:02.322Z,95113.00
2018-10-21T05:36:33.473Z,95117.00
2018-10-21T05:39:06.687Z,95112.00
2018-10-21T05:41:37.590Z,95115.00
2018-10-21T05:44:08.932Z,95116.00
2018-10-21T05:46:47.111Z,95127.00
2018-10-21T05:49:17.910Z,95125.00
2018-10-21T05:51:50.356Z,95127.00
2018-10-21T05:54:21.838Z,95126.00
2018-10-21T05:56:52.761Z,95129.00
2018-10-21T05:59:23.765Z,95123.00
2018-10-21T06:01:54.711Z,95125.00
2018-10-21T06:04:25.979Z,95123.00
2018-10-21T06:06:57.164Z,95122.00
2018-10-21T06:09:28.145Z,95129.00
2018-10-21T06:11:59.169Z,95131.00
2018-10-21T06:14:30.168Z,95130.00
2018-10-21T06:17:35.526Z,95138.00
2018-10-21T06:20:44.901Z,95135.00
2018-10-21T06:23:16.232Z,95138.00
2018-10-21T06:25:47.269Z,95138.00
2018-10-21T06:28:18.494Z,95146.00
2018-10-21T06:30:49.492Z,95134.00
2018-10-21T06:33:20.577Z,95130.00
2018-10-21T06:35:51.757Z,95137.00
2018-10-21T06:38:22.652Z,95140.00
2018-10-21T06:40:53.684Z,95149.00
2018-10-21T06:43:24.915Z,95146.00
2018-10-21T06:45:56.052Z,95150.00
2018-10-21T06:48:27.192Z,95150.00
2018-10-21T06:50:58.273Z,95147.00
2018-10-21T06:53:29.251Z,95149.00
2018-10-21T06:56:00.389Z,95151.00
2018-10-21T06:58:31.450Z,95151.00
2018-10-21T07:01:02.578Z,95150.00
2018-10-21T07:03:33.711Z,95147.00
2018-10-21T07:06:19.146Z,95150.00
2018-10-21T07:08:51.081Z,95143.00
2018-10-21T07:11:22.287Z,95147.00
2018-10-21T07:13:53.343Z,95146.00
2018-10-21T07:16:24.480Z,95144.00
2018-10-21T07:18:55.520Z,95143.00
2018-10-21T07:21:26.582Z,95140.00
2018-10-21T07:23:57.613Z,95140.00
2018-10-21T07:26:28.568Z,95133.00
2018-10-21T07:28:59.685Z,95134.00
2018-10-21T07:31:30.658Z,95131.00
2018-10-21T07:34:01.866Z,95131.00
2018-10-21T07:36:32.862Z,95136.00
2018-10-21T07:39:04.478Z,95135.00
2018-10-21T07:41:35.393Z,95134.00
2018-10-21T07:44:06.991Z,95126.00
2018-10-21T07:46:38.013Z,95128.00
2018-10-21T07:49:09.229Z,95127.00
2018-10-21T07:51:40.310Z,95133.00
2018-10-21T07:54:11.416Z,95126.00
2018-10-21T07:56:42.481Z,95124.00
2018-10-21T07:59:13.656Z,95130.00
2018-10-21T08:01:44.792Z,95122.00
2018-10-21T08:04:15.796Z,95118.00
2018-10-21T08:07:03.273Z,95117.00
2018-10-21T08:09:34.528Z,95114.00
2018-10-21T08:12:05.975Z,95112.00
2018-10-21T08:14:37.254Z,95111.00
2018-10-21T08:17:08.468Z,95109.00
2018-10-21T08:19:39.518Z,95114.00
2018-10-21T08:22:10.716Z,95115.00
2018-10-21T08:24:41.732Z,95108.00
2018-10-21T08:27:13.094Z,95108.00
2018-10-21T08:29:44.450Z,95105.00
2018-10-21T08:32:16.034Z,95101.00
2018-10-21T08:34:47.218Z,95100.00
2018-10-21T08:37:18.474Z,95100.00
2018-10-21T08:39:49.723Z,95102.00
2018-10-21T08:42:21.826Z,95106.00
2018-10-21T08:44:53.065Z,95100.00
2018-10-21T08:47:24.056Z,95098.00
2018-10-21T08:49:55.230Z,95098.00
2018-10-21T08:52:26.195Z,95098.00
2018-10-21T08:54:57.392Z,95099.00
2018-10-21T08:57:28.472Z,95102.00
2018-10-21T08:59:59.614Z,95105.00
2018-10-21T09:02:30.929Z,95103.00
2018-10-21T09:05:02.221Z,95104.00
2018-10-21T09:07:33.426Z,95109.00
2018-10-21T09:10:04.810Z,95110.00
2018-10-21T09:12:35.921Z,95110.00
2018-10-21T09:15:09.723Z,95113.00
2018-10-21T09:17:40.959Z,95109.00
2018-10-21T09:20:17.805Z,95111.00
2018-10-21T09:22:48.822Z,95102.00
2018-10-21T09:25:20.303Z,95103.00
2018-10-21T09:27:51.278Z,95103.00
2018-10-21T09:30:22.252Z,95097.00
2018-10-21T09:32:53.136Z,95098.00
2018-10-21T09:35:24.472Z,95100.00
2018-10-21T09:37:55.469Z,95103.00
2018-10-21T09:40:26.536Z,95096.00
2018-10-21T09:42:57.628Z,95094.00
2018-10-21T09:45:28.647Z,95088.00
2018-10-21T09:47:59.738Z,95092.00
2018-10-21T09:50:30.952Z,95085.00
2018-10-21T09:53:01.959Z,95080.00
2018-10-21T09:55:33.730Z,95082.00
2018-10-21T09:58:04.817Z,95081.00
2018-10-21T10:01:42.978Z,95073.00
2018-10-21T10:04:14.134Z,95070.00
2018-10-21T10:06:45.249Z,95069.00
2018-10-21T10:09:16.357Z,95062.00
2018-10-21T10:11:47.628Z,95061.00
2018-10-21T10:14:18.602Z,95054.00
2018-10-21T10:16:49.670Z,95059.00
2018-10-21T10:19:20.803Z,95056.00
2018-10-21T10:21:51.876Z,95063.00
2018-10-21T10:24:22.945Z,95061.00
2018-10-21T10:26:54.046Z,95059.00
2018-10-21T10:29:24.938Z,95059.00
2018-10-21T10:31:55.916Z,95057.00
2018-10-21T10:34:27.029Z,95052.00
2018-10-21T10:36:58.320Z,95053.00
2018-10-21T10:39:29.385Z,95059.00
2018-10-21T10:42:00.617Z,95055.00
2018-10-21T10:44:31.622Z,95056.00
2018-10-21T10:47:02.624Z,95057.00
2018-10-21T10:49:33.688Z,95061.00
2018-10-21T10:52:04.517Z,95050.00
2018-10-21T10:54:35.250Z,95056.00
2018-10-21T10:57:06.097Z,95053.00
2018-10-21T10:59:37.146Z,95052.00
2018-10-21T11:02:08.093Z,95051.00
2018-10-21T11:04:39.218Z,95051.00
2018-10-21T11:07:10.804Z,95054.00
2018-10-21T11:09:41.846Z,95054.00
2018-10-21T11:12:12.754Z,95052.00
2018-10-21T11:14:43.843Z,95055.00
2018-10-21T11:17:14.773Z,95060.00
2018-10-21T11:19:45.579Z,95061.00
2018-10-21T11:22:16.442Z,95062.00
2018-10-21T11:24:49.223Z,95057.00
2018-10-21T11:27:20.971Z,95065.00
2018-10-21T11:29:51.890Z,95063.00
2018-10-21T11:32:22.911Z,95068.00
2018-10-21T11:34:53.846Z,95069.00
2018-10-21T11:37:24.818Z,95067.00
2018-10-21T11:39:56.131Z,95064.00
2018-10-21T11:42:27.060Z,95066.00
2018-10-21T11:44:57.994Z,95062.00
2018-10-21T11:47:28.966Z,95057.00
2018-10-21T11:49:59.787Z,95060.00
2018-10-21T11:52:30.799Z,95060.00
2018-10-21T11:55:01.831Z,95059.00
2018-10-21T11:57:32.660Z,95061.00
2018-10-21T12:00:03.874Z,95061.00
2018-10-21T12:02:35.371Z,95065.00
2018-10-21T12:05:06.838Z,95071.00
2018-10-21T12:07:37.675Z,95071.00
2018-10-21T12:10:08.792Z,95071.00
2018-10-21T12:12:39.523Z,95079.00
2018-10-21T12:15:11.449Z,95073.00
2018-10-21T12:17:42.665Z,95071.00
2018-10-21T12:20:14.380Z,95077.00
2018-10-21T12:22:49.863Z,95083.00
2018-10-21T12:25:22.064Z,95076.00
2018-10-21T12:27:53.070Z,95082.00
2018-10-21T12:30:24.011Z,95084.00
2018-10-21T12:32:55.250Z,95082.00
2018-10-21T12:35:28.066Z,95086.00
2018-10-21T12:37:59.869Z,95082.00
2018-10-21T12:40:35.058Z,95082.00
2018-10-21T12:43:06.825Z,95085.00
2018-10-21T12:45:38.520Z,95083.00
2018-10-21T12:48:10.341Z,95084.00
2018-10-21T12:50:42.285Z,95082.00
2018-10-21T12:53:13.529Z,95080.00
2018-10-21T12:55:49.852Z,95081.00
2018-10-21T12:58:20.982Z,95083.00
2018-10-21T13:00:52.274Z,95092.00
2018-10-21T13:03:23.331Z,95093.00
2018-10-21T13:05:54.681Z,95100.00
2018-10-21T13:08:26.112Z,95109.00
2018-10-21T13:10:57.492Z,95103.00
2018-10-21T13:13:28.667Z,95104.00
2018-10-21T13:15:59.819Z,95106.00
2018-10-21T13:18:30.948Z,95106.00
2018-10-21T13:21:02.274Z,95109.00
2018-10-21T13:23:33.362Z,95108.00
2018-10-21T13:26:04.659Z,95108.00
2018-10-21T13:28:35.872Z,95104.00
2018-10-21T13:31:06.993Z,95099.00
2018-10-21T13:33:38.291Z,95094.00
2018-10-21T13:36:09.662Z,95098.00
2018-10-21T13:38:40.635Z,95103.00
2018-10-21T13:41:11.810Z,95101.00
2018-10-21T13:43:43.121Z,95107.00
2018-10-21T13:46:14.346Z,95102.00
2018-10-21T13:48:45.403Z,95097.00
2018-10-21T13:51:16.489Z,95100.00
2018-10-21T13:53:47.541Z,95100.00
2018-10-21T13:56:19.192Z,95099.00
2018-10-21T13:58:50.692Z,95102.00
2018-10-21T14:01:22.088Z,95098.00
2018-10-21T14:03:53.419Z,95101.00
2018-10-21T14:06:24.557Z,95105.00
2018-10-21T14:08:55.665Z,95110.00
2018-10-21T14:11:26.568Z,95110.00
2018-10-21T14:13:57.942Z,95109.00
2018-10-21T14:16:29.120Z,95107.00
2018-10-21T14:18:59.990Z,95110.00
2018-10-21T14:21:31.053Z,95110.00
2018-10-21T14:24:02.164Z,95110.00
2018-10-21T14:26:33.155Z,95111.00
2018-10-21T14:29:04.199Z,95112.00
2018-10-21T14:31:35.090Z,95112.00
2018-10-21T14:34:06.310Z,95111.00
2018-10-21T14:36:37.156Z,95111.00
2018-10-21T14:39:12.464Z,95113.00
2018-10-21T14:41:43.351Z,95111.00
2018-10-21T14:44:14.412Z,95112.00
2018-10-21T14:46:45.380Z,95110.00
2018-10-21T14:49:16.389Z,95111.00
2018-10-21T14:51:47.320Z,95113.00
2018-10-21T14:54:18.362Z,95113.00
2018-10-21T14:56:49.188Z,95114.00
2018-10-21T14:59:20.259Z,95120.00
2018-10-21T15:01:51.341Z,95124.00
2018-10-21T15:04:22.311Z,95130.00
2018-10-21T15:06:53.239Z,95131.00
2018-10-21T15:09:24.318Z,95137.00
2018-10-21T15:11:55.271Z,95141.00
2018-10-21T15:14:26.392Z,95144.00
2018-10-21T15:16:57.277Z,95148.00
2018-10-21T15:19:28.133Z,95150.00
2018-10-21T15:21:59.254Z,95145.00
2018-10-21T15:24:30.128Z,95151.00
2018-10-21T15:27:01.156Z,95147.00
2018-10-21T15:29:32.277Z,95148.00
2018-10-21T15:32:03.593Z,95161.00
2018-10-21T15:34:34.648Z,95164.00
2018-10-21T15:37:06.191Z,95166.00
2018-10-21T15:39:37.442Z,95164.00
2018-10-21T15:42:08.531Z,95172.00
2018-10-21T15:44:39.593Z,95167.00
2018-10-21T15:47:11.206Z,95170.00
2018-10-21T15:49:42.202Z,95171.00
2018-10-21T15:52:13.199Z,95175.00
2018-10-21T15:54:44.395Z,95184.00
2018-10-21T15:57:15.544Z,95191.00
2018-10-21T15:59:47.025Z,95192.00
2018-10-21T16:02:18.383Z,95201.00
2018-10-21T16:04:49.492Z,95201.00
2018-10-21T16:07:20.906Z,95200.00
2018-10-21T16:09:52.887Z,95204.00
2018-10-21T16:12:24.050Z,95208.00
2018-10-21T16:14:55.599Z,95214.00
2018-10-21T16:17:26.918Z,95212.00
2018-10-21T16:19:58.007Z,95216.00
2018-10-21T16:22:29.243Z,95211.00
2018-10-21T16:25:00.526Z,95213.00
2018-10-21T16:27:31.655Z,95221.00
2018-10-21T16:30:02.915Z,95225.00
2018-10-21T16:32:34.212Z,95231.00
2018-10-21T16:35:05.708Z,95231.00
2018-10-21T16:37:37.215Z,95230.00
2018-10-21T16:40:12.071Z,95226.00
2018-10-21T16:42:43.386Z,95235.00
2018-10-21T16:45:15.290Z,95235.00
2018-10-21T16:47:46.086Z,95235.00
2018-10-21T16:50:17.866Z,95240.00
2018-10-21T16:52:48.892Z,95238.00
2018-10-21T16:55:19.725Z,95236.00
2018-10-21T16:57:50.720Z,95233.00
2018-10-21T17:00:21.654Z,95240.00
2018-10-21T17:02:52.475Z,95236.00
2018-10-21T17:05:23.261Z,95234.00
2018-10-21T17:07:54.183Z,95238.00
2018-10-21T17:10:25.716Z,95240.00
2018-10-21T17:12:56.177Z,95246.00
2018-10-21T17:15:27.023Z,95255.00
2018-10-21T17:17:57.747Z,95250.00
2018-10-21T17:20:28.867Z,95249.00
2018-10-21T17:22:59.790Z,95254.00
2018-10-21T17:25:30.694Z,95251.00
2018-10-21T17:28:01.586Z,95255.00
2018-10-21T17:30:32.517Z,95252.00
2018-10-21T17:33:03.560Z,95248.00
2018-10-21T17:35:34.688Z,95249.00
2018-10-21T17:38:05.792Z,95247.00
2018-10-21T17:40:36.797Z,95256.00
2018-10-21T17:43:07.922Z,95255.00
2018-10-21T17:45:38.730Z,95259.00
2018-10-21T17:48:09.937Z,95257.00
2018-10-21T17:50:41.443Z,95260.00
2018-10-21T17:53:12.852Z,95258.00
2018-10-21T17:55:43.946Z,95263.00
2018-10-21T17:58:15.030Z,95263.00
2018-10-21T18:00:45.919Z,95261.00
2018-10-21T18:03:17.098Z,95261.00
2018-10-21T18:05:48.027Z,95257.00
2018-10-21T18:08:19.245Z,95255.00
2018-10-21T18:10:50.324Z,95257.00
2018-10-21T18:13:21.258Z,95255.00
2018-10-21T18:15:52.540Z,95257.00
2018-10-21T18:18:24.030Z,95264.00
2018-10-21T18:20:55.470Z,95262.00
2018-10-21T18:23:26.431Z,95261.00
2018-10-21T18:25:57.317Z,95262.00
2018-10-21T18:28:28.155Z,95265.00
2018-10-21T18:30:59.031Z,95264.00
2018-10-21T18:33:29.927Z,95262.00
2018-10-21T18:36:00.855Z,95269.00
2018-10-21T18:38:31.922Z,95267.00
2018-10-21T18:41:03.034Z,95267.00
2018-10-21T18:43:33.614Z,95273.00
2018-10-21T18:46:04.609Z,95280.00
2018-10-21T18:48:35.773Z,95280.00
2018-10-21T18:51:06.902Z,95287.00
2018-10-21T18:53:37.895Z,95281.00
2018-10-21T18:56:09.073Z,95284.00
2018-10-21T18:58:39.916Z,95282.00
2018-10-21T19:01:10.802Z,95284.00
2018-10-21T19:03:41.665Z,95279.00
2018-10-21T19:06:12.457Z,95283.00
2018-10-21T19:08:43.321Z,95288.00
2018-10-21T19:11:14.192Z,95289.00
2018-10-21T19:13:45.175Z,95292.00
2018-10-21T19:16:17.078Z,95295.00
2018-10-21T19:18:47.894Z,95299.00
2018-10-21T19:21:18.677Z,95297.00
2018-10-21T19:23:49.535Z,95298.00
2018-10-21T19:26:20.346Z,95300.00
2018-10-21T19:28:51.255Z,95299.00
2018-10-21T19:31:22.166Z,95297.00
2018-10-21T19:33:53.267Z,95294.00
2018-10-21T19:36:24.256Z,95294.00
2018-10-21T19:38:55.163Z,95297.00
2018-10-21T19:41:26.005Z,95295.00
2018-10-21T19:43:56.928Z,95304.00
2018-10-21T19:46:27.774Z,95308.00
2018-10-21T19:48:58.670Z,95305.00
2018-10-21T19:51:29.402Z,95304.00
2018-10-21T19:54:00.249Z,95303.00
2018-10-21T19:56:32.896Z,95308.00
2018-10-21T19:59:04.805Z,95317.00
2018-10-21T20:01:35.762Z,95315.00
2018-10-21T20:04:06.641Z,95322.00
2018-10-21T20:06:37.560Z,95323.00
2018-10-21T20:09:11.121Z,95326.00
2018-10-21T20:11:42.399Z,95320.00
2018-10-21T20:14:13.242Z,95325.00
2018-10-21T20:16:43.986Z,95326.00
2018-10-21T20:19:14.816Z,95323.00
2018-10-21T20:21:45.540Z,95325.00
2018-10-21T20:24:16.266Z,95324.00
2018-10-21T20:26:46.962Z,95325.00
2018-10-21T20:29:17.726Z,95327.00
2018-10-21T20:31:48.451Z,95327.00
2018-10-21T20:34:19.243Z,95328.00
2018-10-21T20:36:50.055Z,95330.00
2018-10-21T20:39:20.818Z,95331.00
2018-10-21T20:41:51.742Z,95329.00
2018-10-21T20:44:22.614Z,95329.00
2018-10-21T20:46:53.451Z,95326.00
2018-10-21T20:49:24.232Z,95328.00
2018-10-21T20:51:55.109Z,95330.00
2018-10-21T20:54:29.882Z,95328.00
2018-10-21T20:57:04.718Z,95329.00
2018-10-21T20:59:35.713Z,95328.00
2018-10-21T21:02:07.620Z,95326.00
2018-10-21T21:04:38.797Z,95332.00
2018-10-21T21:07:10.574Z,95332.00
2018-10-21T21:09:42.045Z,95332.00
2018-10-21T21:12:12.922Z,95331.00
2018-10-21T21:14:43.945Z,95335.00
2018-10-21T21:17:15.101Z,95332.00
2018-10-21T21:19:45.831Z,95329.00
2018-10-21T21:22:16.879Z,95329.00
2018-10-21T21:24:48.151Z,95323.00
2018-10-21T21:27:18.940Z,95323.00
2018-10-21T21:29:49.971Z,95321.00
2018-10-21T21:32:20.786Z,95325.00
2018-10-21T21:34:51.562Z,95321.00
2018-10-21T21:37:22.360Z,95321.00
2018-10-21T21:39:53.198Z,95325.00
2018-10-21T21:42:24.011Z,95330.00
2018-10-21T21:44:54.762Z,95333.00
2018-10-21T21:47:25.558Z,95334.00
2018-10-21T21:49:56.395Z,95327.00
2018-10-21T21:52:27.348Z,95323.00
2018-10-21T21:54:58.202Z,95324.00
2018-10-21T21:57:29.099Z,95329.00
2018-10-21T21:59:59.998Z,95332.00
2018-10-21T22:02:30.830Z,95332.00
2018-10-21T22:05:01.635Z,95336.00
2018-10-21T22:07:32.362Z,95331.00
2018-10-21T22:10:03.121Z,95332.00
2018-10-21T22:12:34.027Z,95333.00
2018-10-21T22:15:05.037Z,95340.00
2018-10-21T22:17:36.353Z,95338.00
2018-10-21T22:20:07.300Z,95343.00
2018-10-21T22:22:38.073Z,95338.00
2018-10-21T22:25:09.089Z,95342.00
2018-10-21T22:27:40.189Z,95342.00
2018-10-21T22:30:12.087Z,95337.00
2018-10-21T22:32:42.770Z,95338.00
2018-10-21T22:35:13.570Z,95339.00
2018-10-21T22:37:44.999Z,95344.00
2018-10-21T22:40:15.785Z,95347.00
2018-10-21T22:42:46.477Z,95345.00
2018-10-21T22:45:17.337Z,95340.00
2018-10-21T22:47:49.156Z,95343.00
2018-10-21T22:50:20.175Z,95347.00
2018-10-21T22:52:51.227Z,95345.00
2018-10-21T22:55:22.201Z,95340.00
2018-10-21T22:57:53.104Z,95339.00
2018-10-21T23:00:23.960Z,95344.00
2018-10-21T23:02:55.582Z,95341.00
2018-10-21T23:05:26.361Z,95342.00
2018-10-21T23:07:57.570Z,95343.00
2018-10-21T23:10:28.874Z,95347.00
2018-10-21T23:12:59.746Z,95344.00
2018-10-21T23:15:30.523Z,95343.00
2018-10-21T23:18:01.544Z,95343.00
2018-10-21T23:20:32.287Z,95346.00
2018-10-21T23:23:03.113Z,95342.00
2018-10-21T23:25:33.948Z,95340.00
2018-10-21T23:28:04.887Z,95345.00
2018-10-21T23:30:35.637Z,95341.00
2018-10-21T23:33:06.484Z,95346.00
2018-10-21T23:35:37.337Z,95347.00
2018-10-21T23:38:08.063Z,95346.00
2018-10-21T23:40:39.209Z,95350.00
2018-10-21T23:43:10.467Z,95342.00
2018-10-21T23:45:41.253Z,95352.00
2018-10-21T23:48:12.236Z,95345.00
2018-10-21T23:50:43.026Z,95342.00
2018-10-21T23:53:13.933Z,95345.00
2018-10-21T23:55:44.687Z,95343.00
2018-10-21T23:58:15.491Z,95341.00
